createdAt,value
2022-07-31T00:01:18.913Z,3.03
2022-07-31T00:03:46.884Z,2.70
2022-07-31T00:06:16.194Z,2.80
2022-07-31T00:08:44.091Z,3.03
2022-07-31T00:11:12.573Z,2.72
2022-07-31T00:13:57.363Z,3.25
2022-07-31T00:16:26.687Z,3.13
2022-07-31T00:18:54.682Z,2.92
2022-07-31T00:21:24.601Z,3.28
2022-07-31T00:23:52.581Z,3.25
2022-07-31T00:26:20.577Z,3.30
2022-07-31T00:28:48.745Z,3.10
2022-07-31T00:31:18.477Z,2.78
2022-07-31T00:33:46.375Z,2.88
2022-07-31T00:36:14.746Z,3.10
2022-07-31T00:38:44.208Z,3.45
2022-07-31T00:41:12.189Z,3.20
2022-07-31T00:43:40.389Z,4.20
2022-07-31T00:46:08.318Z,3.90
2022-07-31T00:48:42.589Z,3.90
2022-07-31T00:51:10.470Z,4.22
2022-07-31T00:53:38.369Z,3.97
2022-07-31T00:56:07.787Z,3.55
2022-07-31T00:58:35.834Z,3.00
2022-07-31T01:01:03.785Z,3.95
2022-07-31T01:03:32.305Z,4.10
2022-07-31T01:06:00.219Z,3.35
2022-07-31T01:08:28.107Z,2.80
2022-07-31T01:11:00.162Z,4.00
2022-07-31T01:13:36.457Z,3.08
2022-07-31T01:16:08.202Z,3.45
2022-07-31T01:18:38.349Z,3.00
2022-07-31T01:21:09.334Z,3.10
2022-07-31T01:23:55.233Z,3.75
2022-07-31T01:26:36.315Z,4.03
2022-07-31T01:29:15.131Z,3.45
2022-07-31T01:31:46.977Z,3.40
2022-07-31T01:34:23.157Z,5.03
2022-07-31T01:36:59.256Z,4.20
2022-07-31T01:39:33.861Z,3.90
2022-07-31T01:42:06.198Z,4.05
2022-07-31T01:49:37.326Z,3.55
2022-07-31T01:52:07.317Z,3.35
2022-07-31T01:54:36.209Z,3.75
2022-07-31T01:57:05.131Z,3.75
2022-07-31T01:59:35.199Z,3.20
2022-07-31T02:02:06.171Z,3.60
2022-07-31T02:04:38.923Z,3.30
2022-07-31T02:07:08.173Z,3.50
2022-07-31T02:09:36.945Z,3.63
2022-07-31T02:12:09.721Z,3.70
2022-07-31T02:14:40.624Z,4.22
2022-07-31T02:17:11.209Z,4.00
2022-07-31T02:19:41.746Z,3.35
2022-07-31T02:22:29.394Z,3.80
2022-07-31T02:24:57.527Z,3.63
2022-07-31T02:27:54.284Z,4.85
2022-07-31T02:30:17.986Z,4.03
2022-07-31T02:32:48.709Z,3.85
2022-07-31T02:35:18.688Z,3.60
2022-07-31T02:37:47.899Z,3.13
2022-07-31T02:40:17.137Z,3.60
2022-07-31T02:42:46.668Z,3.90
2022-07-31T02:45:16.598Z,3.83
2022-07-31T02:47:44.843Z,4.95
2022-07-31T02:50:17.043Z,5.18
2022-07-31T02:52:48.629Z,4.00
2022-07-31T02:55:17.044Z,4.55
2022-07-31T02:57:45.114Z,3.65
2022-07-31T03:00:22.934Z,4.43
2022-07-31T03:02:51.341Z,4.03
2022-07-31T03:05:20.980Z,4.05
2022-07-31T03:07:49.087Z,4.78
2022-07-31T03:10:17.266Z,3.75
2022-07-31T03:12:48.579Z,5.28
2022-07-31T03:15:18.070Z,5.05
2022-07-31T03:17:47.227Z,4.90
2022-07-31T03:20:16.279Z,5.15
2022-07-31T03:22:46.513Z,4.90
2022-07-31T03:25:21.214Z,5.70
2022-07-31T03:27:55.990Z,5.75
2022-07-31T03:30:25.960Z,5.72
2022-07-31T03:32:54.279Z,5.72
2022-07-31T03:35:22.259Z,6.75
2022-07-31T03:37:51.776Z,6.10
2022-07-31T03:40:19.960Z,5.03
2022-07-31T03:42:49.666Z,6.15
2022-07-31T03:45:18.506Z,6.90
2022-07-31T03:47:46.450Z,6.43
2022-07-31T03:50:15.750Z,6.22
2022-07-31T03:52:44.246Z,6.22
2022-07-31T03:55:13.750Z,7.03
2022-07-31T03:57:42.586Z,6.32
2022-07-31T04:00:16.899Z,7.80
2022-07-31T04:02:46.308Z,7.32
2022-07-31T04:05:14.291Z,8.55
2022-07-31T04:07:42.186Z,8.48
2022-07-31T04:10:11.030Z,8.98
2022-07-31T04:12:40.330Z,9.50
2022-07-31T04:15:08.885Z,10.35
2022-07-31T04:17:37.357Z,9.82
2022-07-31T04:20:06.203Z,11.50
2022-07-31T04:22:34.300Z,11.20
2022-07-31T04:25:03.379Z,10.55
2022-07-31T04:27:31.430Z,11.23
2022-07-31T04:30:00.690Z,11.77
2022-07-31T04:32:30.961Z,11.70
2022-07-31T04:34:59.038Z,14.02
2022-07-31T04:37:27.203Z,12.95
2022-07-31T04:39:55.174Z,12.00
2022-07-31T04:42:23.138Z,14.52
2022-07-31T04:44:51.068Z,13.63
2022-07-31T04:47:20.836Z,13.20
2022-07-31T04:49:48.732Z,13.45
2022-07-31T04:52:16.646Z,13.20
2022-07-31T04:54:44.547Z,15.73
2022-07-31T04:57:12.501Z,14.20
2022-07-31T04:59:59.554Z,12.93
2022-07-31T05:02:29.690Z,14.13
2022-07-31T05:04:57.713Z,13.55
2022-07-31T05:07:28.322Z,13.05
2022-07-31T05:09:57.173Z,13.98
2022-07-31T05:12:25.167Z,13.38
2022-07-31T05:14:53.492Z,13.90
2022-07-31T05:17:29.741Z,13.98
2022-07-31T05:19:59.051Z,15.00
2022-07-31T05:22:27.035Z,12.70
2022-07-31T05:24:55.063Z,14.85
2022-07-31T05:27:22.946Z,15.15
2022-07-31T05:29:51.099Z,14.77
2022-07-31T05:32:19.038Z,15.23
2022-07-31T05:34:46.895Z,15.70
2022-07-31T05:37:16.117Z,15.25
2022-07-31T05:39:44.003Z,14.48
2022-07-31T05:42:12.101Z,14.70
2022-07-31T05:44:39.985Z,13.88
2022-07-31T05:47:08.623Z,13.77
2022-07-31T05:49:36.567Z,14.40
2022-07-31T05:52:05.131Z,14.63
2022-07-31T05:54:34.821Z,14.23
2022-07-31T05:57:02.757Z,15.77
2022-07-31T05:59:32.300Z,15.30
2022-07-31T06:02:00.355Z,15.35
2022-07-31T06:04:28.425Z,15.10
2022-07-31T06:06:56.331Z,15.70
2022-07-31T06:09:25.367Z,16.50
2022-07-31T06:11:54.622Z,15.15
2022-07-31T06:14:22.521Z,15.77
2022-07-31T06:16:50.590Z,15.55
2022-07-31T06:19:20.270Z,15.50
2022-07-31T06:21:53.953Z,15.52
2022-07-31T06:24:22.097Z,15.45
2022-07-31T06:26:49.984Z,16.10
2022-07-31T06:29:19.382Z,16.10
2022-07-31T06:32:08.686Z,17.27
2022-07-31T06:34:36.617Z,17.23
2022-07-31T06:37:04.723Z,18.42
2022-07-31T06:39:54.264Z,17.52
2022-07-31T06:42:21.194Z,16.48
2022-07-31T06:44:50.670Z,16.83
2022-07-31T06:47:19.284Z,16.13
2022-07-31T06:49:47.475Z,15.75
2022-07-31T06:52:16.030Z,17.35
2022-07-31T06:54:44.084Z,17.75
2022-07-31T06:57:12.469Z,17.30
2022-07-31T06:59:40.966Z,17.83
2022-07-31T07:02:10.549Z,17.27
2022-07-31T07:05:06.166Z,17.60
2022-07-31T07:07:31.900Z,17.13
2022-07-31T07:10:00.096Z,18.40
2022-07-31T07:12:28.019Z,19.23
2022-07-31T07:14:56.406Z,17.45
2022-07-31T07:17:28.946Z,17.42
2022-07-31T07:19:57.675Z,17.52
2022-07-31T07:22:31.489Z,16.98
2022-07-31T07:25:00.890Z,17.88
2022-07-31T07:27:28.802Z,17.50
2022-07-31T07:29:57.449Z,17.55
2022-07-31T07:32:26.706Z,16.25
2022-07-31T07:35:00.218Z,17.52
2022-07-31T07:37:29.534Z,17.73
2022-07-31T07:39:57.507Z,15.63
2022-07-31T07:42:32.094Z,15.02
2022-07-31T07:45:00.053Z,15.85
2022-07-31T07:47:54.100Z,14.43
2022-07-31T07:50:19.342Z,14.50
2022-07-31T07:52:47.655Z,15.20
2022-07-31T07:55:15.606Z,14.73
2022-07-31T07:57:45.921Z,13.68
2022-07-31T08:00:16.149Z,14.45
2022-07-31T08:03:46.698Z,14.93
2022-07-31T08:05:34.037Z,13.68
2022-07-31T08:08:01.953Z,14.20
2022-07-31T08:10:29.972Z,15.23
2022-07-31T08:12:58.230Z,14.88
2022-07-31T08:15:26.524Z,14.93
2022-07-31T08:17:55.775Z,13.77
2022-07-31T08:20:23.749Z,14.48
2022-07-31T08:22:51.675Z,14.50
2022-07-31T08:25:19.730Z,14.60
2022-07-31T08:27:50.555Z,15.50
2022-07-31T08:30:18.628Z,15.05
2022-07-31T08:32:46.841Z,15.18
2022-07-31T08:35:16.134Z,14.98
2022-07-31T08:37:51.870Z,15.68
2022-07-31T08:40:32.748Z,16.30
2022-07-31T08:43:10.603Z,16.90
2022-07-31T08:45:52.514Z,18.27
2022-07-31T08:48:24.674Z,19.98
2022-07-31T08:50:56.169Z,20.05
2022-07-31T08:53:25.307Z,19.90
2022-07-31T08:55:56.372Z,21.23
2022-07-31T09:00:53.260Z,24.35
2022-07-31T09:03:21.266Z,24.48
2022-07-31T09:05:49.154Z,25.73
2022-07-31T09:08:18.454Z,25.48
2022-07-31T09:10:50.038Z,26.35
2022-07-31T09:13:19.845Z,24.38
2022-07-31T09:15:47.906Z,23.40
2022-07-31T09:18:19.738Z,23.63
2022-07-31T09:20:57.510Z,24.17
2022-07-31T09:23:28.227Z,22.77
2022-07-31T09:25:57.326Z,24.27
2022-07-31T09:28:34.482Z,24.63
2022-07-31T09:31:03.075Z,24.67
2022-07-31T09:33:31.711Z,23.50
2022-07-31T09:36:00.777Z,23.35
2022-07-31T09:38:34.486Z,23.52
2022-07-31T09:41:55.804Z,22.30
2022-07-31T09:44:09.896Z,24.58
2022-07-31T09:46:43.313Z,23.60
2022-07-31T09:49:12.345Z,22.08
2022-07-31T09:51:41.792Z,21.17
2022-07-31T09:54:21.854Z,20.67
2022-07-31T09:56:50.240Z,20.83
2022-07-31T09:59:18.348Z,17.55
2022-07-31T10:01:48.870Z,17.83
2022-07-31T10:04:18.900Z,15.68
2022-07-31T10:06:48.963Z,16.35
2022-07-31T10:09:19.801Z,15.55
2022-07-31T10:11:49.070Z,14.35
2022-07-31T10:14:22.047Z,12.70
2022-07-31T10:16:53.057Z,10.35
2022-07-31T10:19:22.082Z,10.45
2022-07-31T10:21:56.145Z,9.10
2022-07-31T10:24:28.649Z,7.93
2022-07-31T10:27:00.801Z,7.60
2022-07-31T10:29:32.949Z,7.45
2022-07-31T10:32:01.814Z,7.03
2022-07-31T10:34:30.294Z,6.60
2022-07-31T10:37:06.721Z,6.63
2022-07-31T10:39:50.532Z,6.90
2022-07-31T10:42:30.730Z,6.57
2022-07-31T10:45:07.653Z,6.53
2022-07-31T10:47:36.188Z,6.78
2022-07-31T10:50:05.214Z,6.53
2022-07-31T10:52:34.730Z,6.00
2022-07-31T10:55:15.138Z,6.65
2022-07-31T10:57:57.288Z,6.50
2022-07-31T11:00:28.348Z,7.03
2022-07-31T11:02:58.676Z,7.10
2022-07-31T11:05:28.008Z,7.35
2022-07-31T11:08:02.590Z,7.95
2022-07-31T11:10:34.038Z,6.70
2022-07-31T11:13:04.320Z,7.15
2022-07-31T11:15:32.976Z,7.60
2022-07-31T11:18:25.049Z,8.13
2022-07-31T11:21:13.553Z,8.13
2022-07-31T11:23:57.628Z,7.78
2022-07-31T11:26:41.746Z,7.85
2022-07-31T11:30:01.612Z,7.47
2022-07-31T11:32:02.032Z,6.72
2022-07-31T11:34:30.003Z,6.72
2022-07-31T11:36:58.053Z,6.45
2022-07-31T11:39:36.678Z,6.68
2022-07-31T11:42:07.640Z,6.65
2022-07-31T11:44:36.013Z,6.20
2022-07-31T11:47:04.143Z,6.38
2022-07-31T11:50:01.929Z,6.10
2022-07-31T11:52:30.811Z,6.20
2022-07-31T11:55:09.085Z,5.97
2022-07-31T11:57:51.346Z,6.47
2022-07-31T12:00:29.326Z,5.72
2022-07-31T12:02:58.908Z,5.95
2022-07-31T12:05:38.670Z,6.05
2022-07-31T12:08:07.817Z,5.50
2022-07-31T12:10:36.196Z,4.95
2022-07-31T12:13:05.452Z,4.68
2022-07-31T12:15:33.385Z,5.00
2022-07-31T12:18:02.819Z,4.65
2022-07-31T12:20:35.919Z,4.65
2022-07-31T12:23:06.196Z,4.72
2022-07-31T12:25:42.102Z,4.80
2022-07-31T12:28:13.985Z,4.50
2022-07-31T12:30:42.338Z,4.80
2022-07-31T12:33:11.794Z,4.60
2022-07-31T12:35:55.360Z,4.57
2022-07-31T12:38:47.562Z,4.75
2022-07-31T12:41:14.205Z,4.97
2022-07-31T12:43:51.380Z,4.95
2022-07-31T12:46:21.583Z,4.75
2022-07-31T12:48:49.588Z,5.28
2022-07-31T12:51:21.224Z,4.28
2022-07-31T12:54:09.046Z,4.43
2022-07-31T12:56:37.106Z,5.18
2022-07-31T12:59:07.229Z,5.50
2022-07-31T13:01:35.508Z,5.28
2022-07-31T13:04:04.751Z,4.88
2022-07-31T13:06:36.155Z,5.65
2022-07-31T13:09:04.425Z,5.82
2022-07-31T13:11:46.428Z,5.43
2022-07-31T13:14:17.971Z,5.85
2022-07-31T13:16:46.206Z,6.20
2022-07-31T13:19:14.659Z,6.25
2022-07-31T13:21:49.129Z,5.88
2022-07-31T13:24:18.728Z,5.85
2022-07-31T13:26:46.716Z,5.72
2022-07-31T13:29:14.867Z,6.10
2022-07-31T13:31:44.421Z,5.65
2022-07-31T13:34:12.629Z,5.35
2022-07-31T13:36:40.569Z,5.85
2022-07-31T13:39:08.607Z,5.32
2022-07-31T13:41:39.127Z,5.75
2022-07-31T13:44:08.017Z,5.75
2022-07-31T13:46:36.196Z,6.20
2022-07-31T13:49:08.602Z,5.53
2022-07-31T13:51:37.350Z,6.45
2022-07-31T13:54:05.563Z,6.05
2022-07-31T13:56:36.802Z,6.32
2022-07-31T13:59:11.233Z,6.90
2022-07-31T14:02:04.100Z,6.72
2022-07-31T14:04:32.333Z,7.22
2022-07-31T14:07:00.977Z,6.97
2022-07-31T14:09:29.221Z,6.78
2022-07-31T14:11:57.389Z,6.93
2022-07-31T14:14:25.480Z,6.80
2022-07-31T14:16:53.401Z,6.45
2022-07-31T14:19:21.469Z,6.75
2022-07-31T14:21:56.024Z,7.22
2022-07-31T14:24:25.764Z,7.07
2022-07-31T14:26:53.808Z,7.47
2022-07-31T14:29:21.781Z,7.65
2022-07-31T14:31:49.787Z,7.45
2022-07-31T14:34:17.720Z,8.13
2022-07-31T14:36:45.665Z,7.50
2022-07-31T14:39:14.937Z,6.88
2022-07-31T14:41:43.134Z,6.53
2022-07-31T14:44:11.053Z,6.32
2022-07-31T14:46:39.058Z,6.70
2022-07-31T14:49:08.606Z,7.10
2022-07-31T14:51:36.563Z,6.93
2022-07-31T14:54:05.141Z,6.70
2022-07-31T14:56:58.879Z,6.65
2022-07-31T14:59:22.877Z,6.45
2022-07-31T15:01:50.786Z,5.70
2022-07-31T15:04:18.706Z,6.20
2022-07-31T15:06:59.363Z,6.70
2022-07-31T15:09:34.525Z,7.05
2022-07-31T15:12:03.821Z,7.60
2022-07-31T15:14:32.030Z,7.13
2022-07-31T15:17:00.140Z,7.05
2022-07-31T15:19:28.031Z,7.47
2022-07-31T15:22:15.975Z,6.82
2022-07-31T15:24:49.066Z,6.75
2022-07-31T15:27:20.814Z,7.30
2022-07-31T15:30:00.270Z,6.60
2022-07-31T15:32:34.349Z,6.38
2022-07-31T15:35:02.931Z,7.05
2022-07-31T15:37:31.109Z,6.88
2022-07-31T15:40:02.402Z,6.97
2022-07-31T15:42:33.276Z,6.57
2022-07-31T15:45:01.242Z,7.10
2022-07-31T15:47:29.159Z,7.15
2022-07-31T15:49:57.095Z,7.07
2022-07-31T15:52:25.258Z,7.10
2022-07-31T15:54:53.414Z,6.95
2022-07-31T15:57:21.562Z,7.35
2022-07-31T15:59:54.482Z,7.68
2022-07-31T16:02:22.791Z,7.13
2022-07-31T16:04:52.709Z,7.50
2022-07-31T16:08:30.114Z,7.10
2022-07-31T16:10:16.322Z,8.25
2022-07-31T16:12:45.583Z,8.75
2022-07-31T16:15:16.184Z,7.32
2022-07-31T16:17:44.453Z,7.28
2022-07-31T16:20:26.362Z,7.43
2022-07-31T16:25:24.700Z,7.13
2022-07-31T16:27:52.743Z,6.85
2022-07-31T16:30:22.344Z,7.63
2022-07-31T16:32:51.425Z,6.97
2022-07-31T16:35:19.537Z,7.47
2022-07-31T16:37:52.686Z,7.68
2022-07-31T16:40:29.150Z,7.43
2022-07-31T16:43:00.879Z,7.63
2022-07-31T16:45:31.076Z,7.35
2022-07-31T16:47:59.156Z,7.40
2022-07-31T16:50:27.533Z,7.05
2022-07-31T16:52:55.657Z,7.32
2022-07-31T16:55:59.531Z,7.50
2022-07-31T16:58:13.909Z,7.20
2022-07-31T17:00:43.402Z,7.72
2022-07-31T17:04:01.258Z,7.57
2022-07-31T17:05:59.432Z,6.95
2022-07-31T17:08:28.851Z,7.28
2022-07-31T17:10:56.924Z,7.53
2022-07-31T17:13:24.837Z,7.32
2022-07-31T17:15:54.096Z,8.32
2022-07-31T17:18:25.164Z,7.38
2022-07-31T17:20:56.177Z,7.30
2022-07-31T17:23:43.195Z,7.28
2022-07-31T17:26:21.476Z,7.53
2022-07-31T17:28:50.699Z,7.57
2022-07-31T17:31:20.289Z,7.60
2022-07-31T17:33:58.434Z,7.93
2022-07-31T17:36:28.866Z,7.35
2022-07-31T17:38:56.922Z,8.40
2022-07-31T17:41:26.086Z,8.27
2022-07-31T17:43:54.614Z,7.93
2022-07-31T17:46:35.000Z,8.30
2022-07-31T17:49:05.970Z,8.65
2022-07-31T17:51:34.106Z,8.23
2022-07-31T17:54:02.266Z,8.30
2022-07-31T17:56:30.425Z,7.75
2022-07-31T17:59:04.333Z,8.70
2022-07-31T18:01:34.670Z,7.97
2022-07-31T18:04:03.256Z,9.02
2022-07-31T18:06:31.317Z,8.48
2022-07-31T18:08:59.397Z,8.48
2022-07-31T18:11:28.297Z,8.93
2022-07-31T18:14:01.068Z,8.57
2022-07-31T18:16:32.937Z,8.50
2022-07-31T18:19:00.882Z,8.75
2022-07-31T18:21:28.827Z,8.95
2022-07-31T18:23:57.716Z,9.10
2022-07-31T18:26:28.318Z,9.07
2022-07-31T18:28:56.394Z,9.68
2022-07-31T18:31:34.052Z,8.93
2022-07-31T18:34:05.783Z,9.70
2022-07-31T18:36:34.189Z,9.45
2022-07-31T18:39:03.060Z,9.23
2022-07-31T18:41:30.999Z,9.77
2022-07-31T18:43:58.954Z,10.43
2022-07-31T18:46:26.943Z,9.45
2022-07-31T18:48:56.635Z,10.38
2022-07-31T18:51:26.439Z,9.90
2022-07-31T18:53:54.951Z,10.02
2022-07-31T18:56:23.760Z,8.40
2022-07-31T18:58:51.817Z,8.82
2022-07-31T19:01:20.003Z,10.02
2022-07-31T19:03:48.050Z,10.27
2022-07-31T19:06:15.941Z,10.23
2022-07-31T19:08:46.037Z,9.75
2022-07-31T19:11:13.976Z,10.05
2022-07-31T19:13:41.880Z,9.57
2022-07-31T19:16:09.842Z,9.82
2022-07-31T19:18:40.258Z,9.98
2022-07-31T19:21:23.356Z,9.48
2022-07-31T19:23:58.032Z,10.00
2022-07-31T19:26:25.956Z,9.88
2022-07-31T19:28:53.862Z,10.48
2022-07-31T19:31:21.757Z,9.60
2022-07-31T19:33:49.801Z,10.90
2022-07-31T19:36:18.599Z,11.98
2022-07-31T19:38:46.515Z,10.68
2022-07-31T19:41:15.939Z,10.35
2022-07-31T19:43:45.545Z,11.20
2022-07-31T19:46:13.636Z,11.38
2022-07-31T19:48:43.228Z,9.52
2022-07-31T19:51:11.833Z,10.40
2022-07-31T19:53:40.109Z,10.95
2022-07-31T19:56:08.220Z,9.45
2022-07-31T19:58:38.303Z,9.75
2022-07-31T20:01:07.019Z,9.55
2022-07-31T20:03:35.567Z,9.85
2022-07-31T20:06:04.609Z,10.65
2022-07-31T20:08:33.261Z,10.88
2022-07-31T20:11:04.031Z,10.07
2022-07-31T20:13:33.008Z,10.85
2022-07-31T20:16:02.587Z,10.63
2022-07-31T20:18:30.910Z,11.50
2022-07-31T20:21:02.544Z,9.90
2022-07-31T20:23:33.945Z,11.27
2022-07-31T20:26:02.820Z,10.70
2022-07-31T20:28:30.807Z,11.27
2022-07-31T20:30:58.790Z,11.18
2022-07-31T20:33:28.085Z,11.95
2022-07-31T20:35:55.987Z,10.80
2022-07-31T20:38:25.154Z,9.82
2022-07-31T20:40:55.868Z,9.75
2022-07-31T20:43:25.117Z,9.15
2022-07-31T20:45:54.092Z,10.27
2022-07-31T20:48:24.574Z,9.30
2022-07-31T20:50:54.035Z,8.30
2022-07-31T20:53:23.050Z,8.18
2022-07-31T20:55:51.108Z,8.25
2022-07-31T20:58:19.978Z,7.55
2022-07-31T21:00:48.529Z,7.32
2022-07-31T21:03:17.795Z,8.07
2022-07-31T21:05:46.363Z,6.90
2022-07-31T21:08:15.638Z,6.32
2022-07-31T21:10:43.690Z,7.10
2022-07-31T21:13:11.661Z,6.70
2022-07-31T21:15:42.665Z,6.57
2022-07-31T21:18:13.677Z,6.70
2022-07-31T21:20:51.440Z,6.25
2022-07-31T21:23:23.325Z,6.50
2022-07-31T21:25:51.758Z,6.88
2022-07-31T21:28:20.417Z,6.10
2022-07-31T21:30:48.703Z,6.07
2022-07-31T21:33:18.001Z,6.88
2022-07-31T21:35:47.155Z,6.80
2022-07-31T21:38:16.068Z,6.35
2022-07-31T21:40:46.755Z,6.45
2022-07-31T21:43:16.971Z,7.07
2022-07-31T21:45:57.321Z,6.70
2022-07-31T21:48:29.991Z,7.72
2022-07-31T21:50:58.560Z,7.85
2022-07-31T21:53:26.658Z,7.22
2022-07-31T21:55:59.049Z,7.47
2022-07-31T21:58:29.138Z,7.03
2022-07-31T22:00:59.311Z,7.63
2022-07-31T22:03:27.237Z,7.00
2022-07-31T22:06:12.526Z,7.20
2022-07-31T22:08:40.553Z,7.68
2022-07-31T22:11:12.654Z,6.97
2022-07-31T22:13:40.633Z,7.43
2022-07-31T22:16:08.577Z,7.45
2022-07-31T22:18:36.859Z,6.03
2022-07-31T22:21:07.332Z,7.50
2022-07-31T22:23:36.366Z,6.55
2022-07-31T22:26:04.866Z,6.45
2022-07-31T22:28:34.735Z,6.65
2022-07-31T22:31:03.151Z,6.82
2022-07-31T22:33:31.340Z,6.35
2022-07-31T22:36:02.849Z,6.22
2022-07-31T22:38:31.722Z,5.77
2022-07-31T22:40:59.879Z,6.00
2022-07-31T22:44:11.540Z,5.70
2022-07-31T22:46:18.014Z,5.68
2022-07-31T22:48:46.730Z,5.70
2022-07-31T22:51:16.839Z,5.38
2022-07-31T22:53:48.693Z,5.47
2022-07-31T22:56:17.658Z,5.50
2022-07-31T22:58:45.691Z,5.70
2022-07-31T23:01:15.743Z,5.40
2022-07-31T23:03:45.178Z,6.20
2022-07-31T23:06:31.414Z,5.90
2022-07-31T23:09:01.504Z,6.07
2022-07-31T23:11:29.482Z,6.05
2022-07-31T23:13:57.464Z,6.07
2022-07-31T23:16:27.328Z,5.78
2022-07-31T23:18:56.768Z,6.57
2022-07-31T23:21:25.387Z,6.13
2022-07-31T23:23:53.605Z,6.07
2022-07-31T23:26:24.790Z,6.80
2022-07-31T23:28:53.857Z,6.82
2022-07-31T23:31:21.950Z,6.60
2022-07-31T23:33:50.213Z,6.20
2022-07-31T23:36:19.928Z,6.45
2022-07-31T23:38:48.317Z,6.32
2022-07-31T23:41:36.364Z,6.43
2022-07-31T23:44:03.702Z,5.85
2022-07-31T23:46:32.594Z,5.82
2022-07-31T23:49:00.681Z,6.20
2022-07-31T23:51:30.030Z,6.07
2022-07-31T23:53:58.014Z,6.15
2022-07-31T23:56:25.895Z,6.50
2022-07-31T23:58:53.761Z,7.10
